sensor_id;sensor_type;location;lat;lon;timestamp;P1;durP1;ratioP1;P2;durP2;ratioP2
63801;SDS011;49949;43.060;25.624;2023-09-07T00:01:55;8.05;;;4.63;;
63801;SDS011;49949;43.060;25.624;2023-09-07T00:04:21;9.32;;;4.57;;
63801;SDS011;49949;43.060;25.624;2023-09-07T00:06:48;8.00;;;5.05;;
63801;SDS011;49949;43.060;25.624;2023-09-07T00:09:15;9.02;;;4.85;;
63801;SDS011;49949;43.060;25.624;2023-09-07T00:11:43;13.05;;;5.18;;
63801;SDS011;49949;43.060;25.624;2023-09-07T00:14:09;14.35;;;5.05;;
63801;SDS011;49949;43.060;25.624;2023-09-07T00:16:35;9.18;;;4.45;;
63801;SDS011;49949;43.060;25.624;2023-09-07T00:19:01;9.10;;;4.75;;
63801;SDS011;49949;43.060;25.624;2023-09-07T00:21:29;9.75;;;4.88;;
63801;SDS011;49949;43.060;25.624;2023-09-07T00:23:55;9.10;;;4.88;;
63801;SDS011;49949;43.060;25.624;2023-09-07T00:26:21;15.18;;;5.05;;
63801;SDS011;49949;43.060;25.624;2023-09-07T00:28:47;6.65;;;4.65;;
63801;SDS011;49949;43.060;25.624;2023-09-07T00:31:12;12.68;;;4.68;;
63801;SDS011;49949;43.060;25.624;2023-09-07T00:33:38;9.68;;;4.95;;
63801;SDS011;49949;43.060;25.624;2023-09-07T00:36:04;7.80;;;4.60;;
63801;SDS011;49949;43.060;25.624;2023-09-07T00:38:30;9.75;;;4.78;;
63801;SDS011;49949;43.060;25.624;2023-09-07T00:40:55;11.88;;;5.68;;
63801;SDS011;49949;43.060;25.624;2023-09-07T00:43:21;9.55;;;4.85;;
63801;SDS011;49949;43.060;25.624;2023-09-07T00:45:47;11.45;;;4.97;;
63801;SDS011;49949;43.060;25.624;2023-09-07T00:48:14;9.75;;;5.15;;
63801;SDS011;49949;43.060;25.624;2023-09-07T00:50:41;11.27;;;5.05;;
63801;SDS011;49949;43.060;25.624;2023-09-07T00:53:07;14.10;;;5.28;;
63801;SDS011;49949;43.060;25.624;2023-09-07T00:55:33;9.70;;;4.70;;
63801;SDS011;49949;43.060;25.624;2023-09-07T00:58:01;15.85;;;5.20;;
63801;SDS011;49949;43.060;25.624;2023-09-07T01:00:28;14.35;;;5.00;;
63801;SDS011;49949;43.060;25.624;2023-09-07T01:02:54;12.00;;;6.10;;
63801;SDS011;49949;43.060;25.624;2023-09-07T01:05:24;14.40;;;5.47;;
63801;SDS011;49949;43.060;25.624;2023-09-07T01:07:58;10.77;;;5.68;;
63801;SDS011;49949;43.060;25.624;2023-09-07T01:10:31;8.73;;;5.70;;
63801;SDS011;49949;43.060;25.624;2023-09-07T01:12:57;13.90;;;5.45;;
63801;SDS011;49949;43.060;25.624;2023-09-07T01:15:23;11.65;;;5.93;;
63801;SDS011;49949;43.060;25.624;2023-09-07T01:17:48;12.65;;;5.20;;
63801;SDS011;49949;43.060;25.624;2023-09-07T01:20:15;8.50;;;5.03;;
63801;SDS011;49949;43.060;25.624;2023-09-07T01:22:42;16.48;;;5.32;;
63801;SDS011;49949;43.060;25.624;2023-09-07T01:25:08;12.90;;;4.93;;
63801;SDS011;49949;43.060;25.624;2023-09-07T01:27:35;13.95;;;5.35;;
63801;SDS011;49949;43.060;25.624;2023-09-07T01:30:01;10.93;;;5.07;;
63801;SDS011;49949;43.060;25.624;2023-09-07T01:32:28;6.05;;;4.63;;
63801;SDS011;49949;43.060;25.624;2023-09-07T01:34:57;8.00;;;4.78;;
63801;SDS011;49949;43.060;25.624;2023-09-07T01:37:24;9.73;;;4.90;;
63801;SDS011;49949;43.060;25.624;2023-09-07T01:39:50;12.25;;;5.55;;
63801;SDS011;49949;43.060;25.624;2023-09-07T01:42:15;15.60;;;5.65;;
63801;SDS011;49949;43.060;25.624;2023-09-07T01:44:41;7.90;;;4.80;;
63801;SDS011;49949;43.060;25.624;2023-09-07T01:47:08;11.27;;;5.10;;
63801;SDS011;49949;43.060;25.624;2023-09-07T01:49:34;14.73;;;5.35;;
63801;SDS011;49949;43.060;25.624;2023-09-07T01:51:59;9.27;;;5.32;;
63801;SDS011;49949;43.060;25.624;2023-09-07T01:54:25;7.20;;;4.35;;
63801;SDS011;49949;43.060;25.624;2023-09-07T01:56:50;7.13;;;4.95;;
63801;SDS011;49949;43.060;25.624;2023-09-07T01:59:16;11.15;;;4.65;;
63801;SDS011;49949;43.060;25.624;2023-09-07T02:01:42;8.55;;;4.80;;
63801;SDS011;49949;43.060;25.624;2023-09-07T02:04:07;10.05;;;4.72;;
63801;SDS011;49949;43.060;25.624;2023-09-07T02:06:33;15.43;;;5.47;;
63801;SDS011;49949;43.060;25.624;2023-09-07T02:08:59;9.15;;;5.38;;
63801;SDS011;49949;43.060;25.624;2023-09-07T02:11:25;10.07;;;5.80;;
63801;SDS011;49949;43.060;25.624;2023-09-07T02:13:51;15.50;;;6.05;;
63801;SDS011;49949;43.060;25.624;2023-09-07T02:16:16;12.27;;;5.50;;
63801;SDS011;49949;43.060;25.624;2023-09-07T02:18:43;10.20;;;6.03;;
63801;SDS011;49949;43.060;25.624;2023-09-07T02:21:10;11.20;;;5.55;;
63801;SDS011;49949;43.060;25.624;2023-09-07T02:23:36;14.95;;;5.18;;
63801;SDS011;49949;43.060;25.624;2023-09-07T02:26:02;12.73;;;4.93;;
63801;SDS011;49949;43.060;25.624;2023-09-07T02:28:29;8.88;;;5.03;;
63801;SDS011;49949;43.060;25.624;2023-09-07T02:30:54;6.95;;;4.95;;
63801;SDS011;49949;43.060;25.624;2023-09-07T02:33:27;13.18;;;4.97;;
63801;SDS011;49949;43.060;25.624;2023-09-07T02:35:53;13.30;;;5.18;;
63801;SDS011;49949;43.060;25.624;2023-09-07T02:38:19;23.70;;;5.30;;
63801;SDS011;49949;43.060;25.624;2023-09-07T02:40:45;9.43;;;5.00;;
63801;SDS011;49949;43.060;25.624;2023-09-07T02:43:11;19.85;;;6.28;;
63801;SDS011;49949;43.060;25.624;2023-09-07T02:45:37;13.55;;;6.00;;
63801;SDS011;49949;43.060;25.624;2023-09-07T02:48:03;10.57;;;4.93;;
63801;SDS011;49949;43.060;25.624;2023-09-07T02:50:32;11.38;;;5.15;;
63801;SDS011;49949;43.060;25.624;2023-09-07T02:52:58;10.80;;;5.30;;
63801;SDS011;49949;43.060;25.624;2023-09-07T02:55:25;9.07;;;5.32;;
63801;SDS011;49949;43.060;25.624;2023-09-07T02:57:51;17.73;;;6.15;;
63801;SDS011;49949;43.060;25.624;2023-09-07T03:00:17;17.80;;;5.80;;
63801;SDS011;49949;43.060;25.624;2023-09-07T03:02:43;10.55;;;5.68;;
63801;SDS011;49949;43.060;25.624;2023-09-07T03:05:09;22.17;;;7.65;;
63801;SDS011;49949;43.060;25.624;2023-09-07T03:07:35;10.70;;;5.40;;
63801;SDS011;49949;43.060;25.624;2023-09-07T03:10:01;11.60;;;6.30;;
63801;SDS011;49949;43.060;25.624;2023-09-07T03:12:27;12.77;;;6.03;;
63801;SDS011;49949;43.060;25.624;2023-09-07T03:14:53;9.68;;;5.93;;
63801;SDS011;49949;43.060;25.624;2023-09-07T03:17:19;12.15;;;5.75;;
63801;SDS011;49949;43.060;25.624;2023-09-07T03:19:46;17.10;;;6.50;;
63801;SDS011;49949;43.060;25.624;2023-09-07T03:22:12;9.52;;;5.50;;
63801;SDS011;49949;43.060;25.624;2023-09-07T03:24:38;13.45;;;6.40;;
63801;SDS011;49949;43.060;25.624;2023-09-07T03:27:04;14.23;;;6.00;;
63801;SDS011;49949;43.060;25.624;2023-09-07T03:29:33;12.25;;;5.78;;
63801;SDS011;49949;43.060;25.624;2023-09-07T03:32:00;11.88;;;5.68;;
63801;SDS011;49949;43.060;25.624;2023-09-07T03:34:26;15.75;;;6.13;;
63801;SDS011;49949;43.060;25.624;2023-09-07T03:36:52;14.73;;;6.13;;
63801;SDS011;49949;43.060;25.624;2023-09-07T03:39:18;14.25;;;6.53;;
63801;SDS011;49949;43.060;25.624;2023-09-07T03:41:44;10.48;;;5.95;;
63801;SDS011;49949;43.060;25.624;2023-09-07T03:44:10;14.88;;;6.10;;
63801;SDS011;49949;43.060;25.624;2023-09-07T03:46:35;7.82;;;5.47;;
63801;SDS011;49949;43.060;25.624;2023-09-07T03:49:01;17.02;;;5.78;;
63801;SDS011;49949;43.060;25.624;2023-09-07T03:51:27;8.27;;;5.30;;
63801;SDS011;49949;43.060;25.624;2023-09-07T03:53:53;12.40;;;6.03;;
63801;SDS011;49949;43.060;25.624;2023-09-07T03:56:19;20.50;;;5.80;;
63801;SDS011;49949;43.060;25.624;2023-09-07T03:58:44;12.68;;;5.68;;
63801;SDS011;49949;43.060;25.624;2023-09-07T04:01:12;15.65;;;5.68;;
63801;SDS011;49949;43.060;25.624;2023-09-07T04:03:41;12.82;;;5.85;;
63801;SDS011;49949;43.060;25.624;2023-09-07T04:06:07;8.65;;;5.82;;
63801;SDS011;49949;43.060;25.624;2023-09-07T04:08:32;12.38;;;5.65;;
63801;SDS011;49949;43.060;25.624;2023-09-07T04:11:02;15.02;;;6.15;;
63801;SDS011;49949;43.060;25.624;2023-09-07T04:13:28;16.85;;;6.38;;
63801;SDS011;49949;43.060;25.624;2023-09-07T04:15:54;10.88;;;5.80;;
63801;SDS011;49949;43.060;25.624;2023-09-07T04:18:20;15.77;;;6.65;;
63801;SDS011;49949;43.060;25.624;2023-09-07T04:20:45;8.48;;;5.68;;
63801;SDS011;49949;43.060;25.624;2023-09-07T04:23:11;9.60;;;6.90;;
63801;SDS011;49949;43.060;25.624;2023-09-07T04:25:37;8.82;;;4.72;;
63801;SDS011;49949;43.060;25.624;2023-09-07T04:28:04;13.40;;;5.40;;
63801;SDS011;49949;43.060;25.624;2023-09-07T04:30:31;11.30;;;5.20;;
63801;SDS011;49949;43.060;25.624;2023-09-07T04:32:57;14.98;;;5.82;;
63801;SDS011;49949;43.060;25.624;2023-09-07T04:35:28;14.88;;;5.90;;
63801;SDS011;49949;43.060;25.624;2023-09-07T04:40:21;15.68;;;5.47;;
63801;SDS011;49949;43.060;25.624;2023-09-07T04:42:47;21.63;;;5.45;;
63801;SDS011;49949;43.060;25.624;2023-09-07T04:45:13;13.65;;;5.97;;
63801;SDS011;49949;43.060;25.624;2023-09-07T04:47:38;13.07;;;6.18;;
63801;SDS011;49949;43.060;25.624;2023-09-07T04:50:04;14.45;;;5.90;;
63801;SDS011;49949;43.060;25.624;2023-09-07T04:52:31;15.07;;;5.50;;
63801;SDS011;49949;43.060;25.624;2023-09-07T04:54:57;27.10;;;6.53;;
63801;SDS011;49949;43.060;25.624;2023-09-07T04:57:22;16.95;;;5.80;;
63801;SDS011;49949;43.060;25.624;2023-09-07T04:59:48;13.10;;;6.38;;
63801;SDS011;49949;43.060;25.624;2023-09-07T05:02:14;23.60;;;5.95;;
63801;SDS011;49949;43.060;25.624;2023-09-07T05:04:40;17.27;;;7.35;;
63801;SDS011;49949;43.060;25.624;2023-09-07T05:07:05;23.15;;;6.45;;
63801;SDS011;49949;43.060;25.624;2023-09-07T05:09:31;16.58;;;6.15;;
63801;SDS011;49949;43.060;25.624;2023-09-07T05:11:58;17.58;;;6.43;;
63801;SDS011;49949;43.060;25.624;2023-09-07T05:14:23;11.45;;;6.30;;
63801;SDS011;49949;43.060;25.624;2023-09-07T05:16:50;20.88;;;6.63;;
63801;SDS011;49949;43.060;25.624;2023-09-07T05:19:16;18.30;;;7.03;;
63801;SDS011;49949;43.060;25.624;2023-09-07T05:21:42;15.38;;;7.25;;
63801;SDS011;49949;43.060;25.624;2023-09-07T05:24:07;16.35;;;6.30;;
63801;SDS011;49949;43.060;25.624;2023-09-07T05:26:33;22.67;;;6.78;;
63801;SDS011;49949;43.060;25.624;2023-09-07T05:28:59;38.28;;;7.43;;
63801;SDS011;49949;43.060;25.624;2023-09-07T05:31:24;27.73;;;7.82;;
63801;SDS011;49949;43.060;25.624;2023-09-07T05:33:50;19.80;;;7.20;;
63801;SDS011;49949;43.060;25.624;2023-09-07T05:36:17;29.77;;;7.35;;
63801;SDS011;49949;43.060;25.624;2023-09-07T05:38:43;23.73;;;6.68;;
63801;SDS011;49949;43.060;25.624;2023-09-07T05:41:08;22.27;;;6.28;;
63801;SDS011;49949;43.060;25.624;2023-09-07T05:43:34;20.67;;;7.32;;
63801;SDS011;49949;43.060;25.624;2023-09-07T05:46:00;18.67;;;7.25;;
63801;SDS011;49949;43.060;25.624;2023-09-07T05:48:26;17.27;;;7.65;;
63801;SDS011;49949;43.060;25.624;2023-09-07T05:50:51;24.98;;;7.63;;
63801;SDS011;49949;43.060;25.624;2023-09-07T05:53:18;26.48;;;7.65;;
63801;SDS011;49949;43.060;25.624;2023-09-07T05:55:45;28.25;;;7.40;;
63801;SDS011;49949;43.060;25.624;2023-09-07T05:58:12;29.70;;;8.45;;
63801;SDS011;49949;43.060;25.624;2023-09-07T06:00:39;41.90;;;7.90;;
63801;SDS011;49949;43.060;25.624;2023-09-07T06:03:06;16.80;;;6.60;;
63801;SDS011;49949;43.060;25.624;2023-09-07T06:05:33;18.80;;;6.15;;
63801;SDS011;49949;43.060;25.624;2023-09-07T06:08:00;34.47;;;7.28;;
63801;SDS011;49949;43.060;25.624;2023-09-07T06:10:27;17.40;;;6.88;;
63801;SDS011;49949;43.060;25.624;2023-09-07T06:12:54;32.15;;;7.03;;
63801;SDS011;49949;43.060;25.624;2023-09-07T06:15:20;24.40;;;5.97;;
63801;SDS011;49949;43.060;25.624;2023-09-07T06:17:46;21.17;;;6.10;;
63801;SDS011;49949;43.060;25.624;2023-09-07T06:20:12;20.85;;;6.18;;
63801;SDS011;49949;43.060;25.624;2023-09-07T06:22:38;16.35;;;5.85;;
63801;SDS011;49949;43.060;25.624;2023-09-07T06:25:03;11.63;;;5.22;;
63801;SDS011;49949;43.060;25.624;2023-09-07T06:27:29;13.63;;;5.03;;
63801;SDS011;49949;43.060;25.624;2023-09-07T06:29:55;17.92;;;5.22;;
63801;SDS011;49949;43.060;25.624;2023-09-07T06:32:21;13.05;;;4.95;;
63801;SDS011;49949;43.060;25.624;2023-09-07T06:34:46;9.05;;;4.57;;
63801;SDS011;49949;43.060;25.624;2023-09-07T06:37:12;15.52;;;4.43;;
63801;SDS011;49949;43.060;25.624;2023-09-07T06:39:38;18.58;;;4.43;;
63801;SDS011;49949;43.060;25.624;2023-09-07T06:42:04;24.33;;;4.35;;
63801;SDS011;49949;43.060;25.624;2023-09-07T06:44:29;14.32;;;4.47;;
63801;SDS011;49949;43.060;25.624;2023-09-07T06:46:55;12.40;;;4.22;;
63801;SDS011;49949;43.060;25.624;2023-09-07T06:49:21;8.95;;;3.65;;
63801;SDS011;49949;43.060;25.624;2023-09-07T06:51:47;13.48;;;4.30;;
63801;SDS011;49949;43.060;25.624;2023-09-07T06:54:13;14.57;;;4.30;;
63801;SDS011;49949;43.060;25.624;2023-09-07T06:56:39;6.95;;;4.00;;
63801;SDS011;49949;43.060;25.624;2023-09-07T06:59:05;15.35;;;6.05;;
63801;SDS011;49949;43.060;25.624;2023-09-07T07:01:30;5.05;;;3.42;;
63801;SDS011;49949;43.060;25.624;2023-09-07T07:03:56;14.82;;;4.20;;
63801;SDS011;49949;43.060;25.624;2023-09-07T07:06:22;30.88;;;5.22;;
63801;SDS011;49949;43.060;25.624;2023-09-07T07:08:49;10.57;;;3.35;;
63801;SDS011;49949;43.060;25.624;2023-09-07T07:11:14;15.60;;;3.92;;
63801;SDS011;49949;43.060;25.624;2023-09-07T07:13:40;11.60;;;4.15;;
63801;SDS011;49949;43.060;25.624;2023-09-07T07:16:06;19.63;;;4.35;;
63801;SDS011;49949;43.060;25.624;2023-09-07T07:18:32;10.30;;;4.60;;
63801;SDS011;49949;43.060;25.624;2023-09-07T07:20:58;19.80;;;4.60;;
63801;SDS011;49949;43.060;25.624;2023-09-07T07:23:23;33.78;;;5.68;;
63801;SDS011;49949;43.060;25.624;2023-09-07T07:25:49;17.80;;;4.75;;
63801;SDS011;49949;43.060;25.624;2023-09-07T07:28:16;9.93;;;4.05;;
63801;SDS011;49949;43.060;25.624;2023-09-07T07:30:41;14.18;;;4.88;;
63801;SDS011;49949;43.060;25.624;2023-09-07T07:33:07;12.63;;;4.55;;
63801;SDS011;49949;43.060;25.624;2023-09-07T07:35:34;12.50;;;4.10;;
63801;SDS011;49949;43.060;25.624;2023-09-07T07:38:00;13.40;;;4.90;;
63801;SDS011;49949;43.060;25.624;2023-09-07T07:40:26;9.38;;;3.78;;
63801;SDS011;49949;43.060;25.624;2023-09-07T07:42:52;9.18;;;4.05;;
63801;SDS011;49949;43.060;25.624;2023-09-07T07:45:18;8.57;;;3.88;;
63801;SDS011;49949;43.060;25.624;2023-09-07T07:47:50;16.88;;;4.28;;
63801;SDS011;49949;43.060;25.624;2023-09-07T07:50:17;15.32;;;4.25;;
63801;SDS011;49949;43.060;25.624;2023-09-07T07:52:43;16.92;;;3.88;;
63801;SDS011;49949;43.060;25.624;2023-09-07T07:55:09;10.93;;;4.32;;
63801;SDS011;49949;43.060;25.624;2023-09-07T07:57:35;12.35;;;4.05;;
63801;SDS011;49949;43.060;25.624;2023-09-07T08:00:01;9.13;;;4.03;;
63801;SDS011;49949;43.060;25.624;2023-09-07T08:02:29;7.28;;;3.58;;
63801;SDS011;49949;43.060;25.624;2023-09-07T08:04:55;9.75;;;4.20;;
63801;SDS011;49949;43.060;25.624;2023-09-07T08:07:21;11.55;;;3.88;;
63801;SDS011;49949;43.060;25.624;2023-09-07T08:09:47;7.70;;;4.35;;
63801;SDS011;49949;43.060;25.624;2023-09-07T08:12:13;26.70;;;4.65;;
63801;SDS011;49949;43.060;25.624;2023-09-07T08:14:38;11.80;;;4.18;;
63801;SDS011;49949;43.060;25.624;2023-09-07T08:17:04;5.90;;;3.40;;
63801;SDS011;49949;43.060;25.624;2023-09-07T08:19:30;12.38;;;4.30;;
63801;SDS011;49949;43.060;25.624;2023-09-07T08:21:57;5.82;;;3.50;;
63801;SDS011;49949;43.060;25.624;2023-09-07T08:24:28;8.90;;;3.45;;
63801;SDS011;49949;43.060;25.624;2023-09-07T08:26:55;7.05;;;3.60;;
63801;SDS011;49949;43.060;25.624;2023-09-07T08:29:22;7.75;;;3.75;;
63801;SDS011;49949;43.060;25.624;2023-09-07T08:31:52;10.60;;;4.22;;
63801;SDS011;49949;43.060;25.624;2023-09-07T08:34:21;25.58;;;4.82;;
63801;SDS011;49949;43.060;25.624;2023-09-07T08:36:49;13.27;;;4.30;;
63801;SDS011;49949;43.060;25.624;2023-09-07T08:39:15;8.10;;;4.22;;
63801;SDS011;49949;43.060;25.624;2023-09-07T08:41:45;14.38;;;5.28;;
63801;SDS011;49949;43.060;25.624;2023-09-07T08:44:11;62.22;;;7.18;;
63801;SDS011;49949;43.060;25.624;2023-09-07T08:46:39;12.30;;;4.60;;
63801;SDS011;49949;43.060;25.624;2023-09-07T08:49:06;17.80;;;4.38;;
63801;SDS011;49949;43.060;25.624;2023-09-07T08:51:32;18.20;;;5.32;;
63801;SDS011;49949;43.060;25.624;2023-09-07T08:53:58;7.78;;;3.95;;
63801;SDS011;49949;43.060;25.624;2023-09-07T08:56:24;7.32;;;3.85;;
63801;SDS011;49949;43.060;25.624;2023-09-07T08:58:50;6.75;;;4.47;;
63801;SDS011;49949;43.060;25.624;2023-09-07T09:01:16;7.82;;;4.15;;
63801;SDS011;49949;43.060;25.624;2023-09-07T09:03:42;10.48;;;3.97;;
63801;SDS011;49949;43.060;25.624;2023-09-07T09:06:08;9.30;;;3.95;;
63801;SDS011;49949;43.060;25.624;2023-09-07T09:08:44;4.63;;;4.20;;
63801;SDS011;49949;43.060;25.624;2023-09-07T09:11:11;7.45;;;3.92;;
63801;SDS011;49949;43.060;25.624;2023-09-07T09:13:37;11.55;;;4.65;;
63801;SDS011;49949;43.060;25.624;2023-09-07T09:16:04;7.57;;;3.92;;
63801;SDS011;49949;43.060;25.624;2023-09-07T09:18:30;11.13;;;4.20;;
63801;SDS011;49949;43.060;25.624;2023-09-07T09:20:55;9.88;;;4.13;;
63801;SDS011;49949;43.060;25.624;2023-09-07T09:23:24;11.65;;;4.38;;
63801;SDS011;49949;43.060;25.624;2023-09-07T09:25:55;7.22;;;4.50;;
63801;SDS011;49949;43.060;25.624;2023-09-07T09:28:21;9.35;;;3.90;;
63801;SDS011;49949;43.060;25.624;2023-09-07T09:30:47;10.23;;;3.58;;
63801;SDS011;49949;43.060;25.624;2023-09-07T09:33:14;5.43;;;3.90;;
63801;SDS011;49949;43.060;25.624;2023-09-07T09:35:40;9.13;;;4.07;;
63801;SDS011;49949;43.060;25.624;2023-09-07T09:38:07;11.48;;;4.32;;
63801;SDS011;49949;43.060;25.624;2023-09-07T09:40:35;11.20;;;4.30;;
63801;SDS011;49949;43.060;25.624;2023-09-07T09:43:03;8.70;;;4.28;;
63801;SDS011;49949;43.060;25.624;2023-09-07T09:45:30;8.43;;;3.42;;
63801;SDS011;49949;43.060;25.624;2023-09-07T09:47:57;6.95;;;3.70;;
63801;SDS011;49949;43.060;25.624;2023-09-07T09:50:26;10.68;;;3.95;;
63801;SDS011;49949;43.060;25.624;2023-09-07T09:52:53;6.00;;;3.50;;
63801;SDS011;49949;43.060;25.624;2023-09-07T09:55:19;5.10;;;3.35;;
63801;SDS011;49949;43.060;25.624;2023-09-07T09:57:44;6.38;;;3.67;;
63801;SDS011;49949;43.060;25.624;2023-09-07T10:00:10;8.82;;;4.20;;
63801;SDS011;49949;43.060;25.624;2023-09-07T10:03:10;7.10;;;3.63;;
63801;SDS011;49949;43.060;25.624;2023-09-07T10:05:39;5.55;;;3.80;;
63801;SDS011;49949;43.060;25.624;2023-09-07T10:08:09;10.35;;;4.30;;
63801;SDS011;49949;43.060;25.624;2023-09-07T10:10:37;13.52;;;3.60;;
63801;SDS011;49949;43.060;25.624;2023-09-07T10:13:03;16.70;;;4.30;;
63801;SDS011;49949;43.060;25.624;2023-09-07T10:15:30;16.95;;;6.63;;
63801;SDS011;49949;43.060;25.624;2023-09-07T10:18:04;9.55;;;4.80;;
63801;SDS011;49949;43.060;25.624;2023-09-07T10:23:19;6.90;;;3.70;;
63801;SDS011;49949;43.060;25.624;2023-09-07T10:25:52;20.65;;;8.25;;
63801;SDS011;49949;43.060;25.624;2023-09-07T10:28:24;8.18;;;3.90;;
63801;SDS011;49949;43.060;25.624;2023-09-07T10:31:00;15.13;;;4.75;;
63801;SDS011;49949;43.060;25.624;2023-09-07T10:33:26;5.47;;;3.42;;
63801;SDS011;49949;43.060;25.624;2023-09-07T10:35:52;7.05;;;3.67;;
63801;SDS011;49949;43.060;25.624;2023-09-07T10:38:17;10.45;;;3.80;;
63801;SDS011;49949;43.060;25.624;2023-09-07T10:40:44;11.68;;;3.55;;
63801;SDS011;49949;43.060;25.624;2023-09-07T10:43:10;18.48;;;3.60;;
63801;SDS011;49949;43.060;25.624;2023-09-07T10:45:36;6.10;;;3.88;;
63801;SDS011;49949;43.060;25.624;2023-09-07T10:48:02;7.28;;;3.53;;
63801;SDS011;49949;43.060;25.624;2023-09-07T10:50:41;9.65;;;4.38;;
63801;SDS011;49949;43.060;25.624;2023-09-07T10:53:08;10.90;;;3.20;;
63801;SDS011;49949;43.060;25.624;2023-09-07T10:55:37;7.43;;;3.55;;
63801;SDS011;49949;43.060;25.624;2023-09-07T10:58:06;8.27;;;3.55;;
63801;SDS011;49949;43.060;25.624;2023-09-07T11:00:34;5.93;;;3.05;;
63801;SDS011;49949;43.060;25.624;2023-09-07T11:03:06;4.03;;;3.10;;
63801;SDS011;49949;43.060;25.624;2023-09-07T11:05:33;7.43;;;3.08;;
63801;SDS011;49949;43.060;25.624;2023-09-07T11:08:01;11.23;;;2.97;;
63801;SDS011;49949;43.060;25.624;2023-09-07T11:10:31;6.70;;;3.00;;
63801;SDS011;49949;43.060;25.624;2023-09-07T11:13:01;4.85;;;3.60;;
63801;SDS011;49949;43.060;25.624;2023-09-07T11:15:29;3.28;;;2.92;;
63801;SDS011;49949;43.060;25.624;2023-09-07T11:17:55;6.28;;;3.25;;
63801;SDS011;49949;43.060;25.624;2023-09-07T11:20:22;10.55;;;4.00;;
63801;SDS011;49949;43.060;25.624;2023-09-07T11:22:49;6.05;;;3.13;;
63801;SDS011;49949;43.060;25.624;2023-09-07T11:25:15;7.50;;;3.40;;
63801;SDS011;49949;43.060;25.624;2023-09-07T11:27:41;5.55;;;3.50;;
63801;SDS011;49949;43.060;25.624;2023-09-07T11:30:07;10.68;;;3.88;;
63801;SDS011;49949;43.060;25.624;2023-09-07T11:32:36;7.45;;;3.85;;
63801;SDS011;49949;43.060;25.624;2023-09-07T11:35:02;5.13;;;3.30;;
63801;SDS011;49949;43.060;25.624;2023-09-07T11:37:32;9.48;;;3.88;;
63801;SDS011;49949;43.060;25.624;2023-09-07T11:39:59;17.75;;;3.70;;
63801;SDS011;49949;43.060;25.624;2023-09-07T11:42:24;11.20;;;3.78;;
63801;SDS011;49949;43.060;25.624;2023-09-07T11:44:50;14.20;;;3.80;;
63801;SDS011;49949;43.060;25.624;2023-09-07T11:47:16;12.60;;;3.75;;
63801;SDS011;49949;43.060;25.624;2023-09-07T11:49:41;7.07;;;3.60;;
63801;SDS011;49949;43.060;25.624;2023-09-07T11:52:07;7.50;;;3.10;;
63801;SDS011;49949;43.060;25.624;2023-09-07T11:54:33;8.30;;;3.60;;
63801;SDS011;49949;43.060;25.624;2023-09-07T11:56:59;8.77;;;3.40;;
63801;SDS011;49949;43.060;25.624;2023-09-07T11:59:24;3.40;;;3.00;;
63801;SDS011;49949;43.060;25.624;2023-09-07T12:01:50;5.63;;;3.25;;
63801;SDS011;49949;43.060;25.624;2023-09-07T12:04:16;15.10;;;3.67;;
63801;SDS011;49949;43.060;25.624;2023-09-07T12:06:42;10.40;;;3.90;;
63801;SDS011;49949;43.060;25.624;2023-09-07T12:09:08;6.07;;;3.60;;
63801;SDS011;49949;43.060;25.624;2023-09-07T12:11:34;5.85;;;3.47;;
63801;SDS011;49949;43.060;25.624;2023-09-07T12:14:00;8.05;;;3.72;;
63801;SDS011;49949;43.060;25.624;2023-09-07T12:16:26;9.50;;;3.92;;
63801;SDS011;49949;43.060;25.624;2023-09-07T12:18:52;6.68;;;4.80;;
63801;SDS011;49949;43.060;25.624;2023-09-07T12:21:19;4.65;;;3.30;;
63801;SDS011;49949;43.060;25.624;2023-09-07T12:23:45;7.50;;;3.45;;
63801;SDS011;49949;43.060;25.624;2023-09-07T12:26:11;5.13;;;3.25;;
63801;SDS011;49949;43.060;25.624;2023-09-07T12:28:37;6.13;;;3.58;;
63801;SDS011;49949;43.060;25.624;2023-09-07T12:31:03;4.82;;;3.33;;
63801;SDS011;49949;43.060;25.624;2023-09-07T12:33:30;7.30;;;3.42;;
63801;SDS011;49949;43.060;25.624;2023-09-07T12:35:55;8.93;;;3.50;;
63801;SDS011;49949;43.060;25.624;2023-09-07T12:38:21;8.65;;;3.53;;
63801;SDS011;49949;43.060;25.624;2023-09-07T12:40:52;6.67;;;3.20;;
63801;SDS011;49949;43.060;25.624;2023-09-07T12:43:18;10.90;;;4.05;;
63801;SDS011;49949;43.060;25.624;2023-09-07T12:45:45;7.30;;;3.22;;
63801;SDS011;49949;43.060;25.624;2023-09-07T12:48:11;11.77;;;3.92;;
63801;SDS011;49949;43.060;25.624;2023-09-07T12:50:36;9.95;;;3.53;;
63801;SDS011;49949;43.060;25.624;2023-09-07T12:53:02;11.70;;;3.72;;
63801;SDS011;49949;43.060;25.624;2023-09-07T12:55:28;18.77;;;4.10;;
63801;SDS011;49949;43.060;25.624;2023-09-07T12:57:55;7.25;;;3.15;;
63801;SDS011;49949;43.060;25.624;2023-09-07T13:00:20;10.88;;;4.68;;
63801;SDS011;49949;43.060;25.624;2023-09-07T13:02:46;13.02;;;4.00;;
63801;SDS011;49949;43.060;25.624;2023-09-07T13:05:12;13.35;;;4.00;;
63801;SDS011;49949;43.060;25.624;2023-09-07T13:07:37;9.13;;;3.40;;
63801;SDS011;49949;43.060;25.624;2023-09-07T13:10:04;7.30;;;3.35;;
63801;SDS011;49949;43.060;25.624;2023-09-07T13:12:33;3.90;;;3.22;;
63801;SDS011;49949;43.060;25.624;2023-09-07T13:15:00;7.90;;;3.45;;
63801;SDS011;49949;43.060;25.624;2023-09-07T13:17:25;8.02;;;3.92;;
63801;SDS011;49949;43.060;25.624;2023-09-07T13:19:51;10.48;;;4.22;;
63801;SDS011;49949;43.060;25.624;2023-09-07T13:22:17;7.03;;;4.65;;
63801;SDS011;49949;43.060;25.624;2023-09-07T13:24:43;5.32;;;3.40;;
63801;SDS011;49949;43.060;25.624;2023-09-07T13:27:08;9.23;;;3.53;;
63801;SDS011;49949;43.060;25.624;2023-09-07T13:29:35;8.43;;;3.40;;
63801;SDS011;49949;43.060;25.624;2023-09-07T13:32:01;12.90;;;4.10;;
63801;SDS011;49949;43.060;25.624;2023-09-07T13:34:27;8.95;;;3.80;;
63801;SDS011;49949;43.060;25.624;2023-09-07T13:36:53;10.10;;;3.88;;
63801;SDS011;49949;43.060;25.624;2023-09-07T13:39:19;5.55;;;2.63;;
63801;SDS011;49949;43.060;25.624;2023-09-07T13:41:45;4.45;;;2.90;;
63801;SDS011;49949;43.060;25.624;2023-09-07T13:44:11;61.13;;;5.55;;
63801;SDS011;49949;43.060;25.624;2023-09-07T13:46:38;5.65;;;3.20;;
63801;SDS011;49949;43.060;25.624;2023-09-07T13:49:04;7.65;;;3.60;;
63801;SDS011;49949;43.060;25.624;2023-09-07T13:51:30;6.10;;;3.70;;
63801;SDS011;49949;43.060;25.624;2023-09-07T13:54:02;5.18;;;3.00;;
63801;SDS011;49949;43.060;25.624;2023-09-07T13:56:28;5.00;;;3.03;;
63801;SDS011;49949;43.060;25.624;2023-09-07T13:58:54;7.45;;;3.78;;
63801;SDS011;49949;43.060;25.624;2023-09-07T14:01:20;8.40;;;3.63;;
63801;SDS011;49949;43.060;25.624;2023-09-07T14:03:46;5.07;;;2.95;;
63801;SDS011;49949;43.060;25.624;2023-09-07T14:06:12;7.07;;;3.25;;
63801;SDS011;49949;43.060;25.624;2023-09-07T14:08:37;6.95;;;3.15;;
63801;SDS011;49949;43.060;25.624;2023-09-07T14:11:03;9.32;;;3.60;;
63801;SDS011;49949;43.060;25.624;2023-09-07T14:13:29;8.75;;;3.30;;
63801;SDS011;49949;43.060;25.624;2023-09-07T14:15:59;8.68;;;3.00;;
63801;SDS011;49949;43.060;25.624;2023-09-07T14:18:25;8.77;;;3.38;;
63801;SDS011;49949;43.060;25.624;2023-09-07T14:20:50;10.85;;;3.42;;
63801;SDS011;49949;43.060;25.624;2023-09-07T14:23:17;8.45;;;3.17;;
63801;SDS011;49949;43.060;25.624;2023-09-07T14:25:45;5.72;;;3.20;;
63801;SDS011;49949;43.060;25.624;2023-09-07T14:28:12;17.27;;;3.97;;